Time;durP1;ratioP1;P1;durP2;ratioP2;P2;SDS_P1;SDS_P2;PMS_P1;PMS_P2;Temp;Humidity;BMP_temperature;BMP_pressure;BME280_temperature;BME280_humidity;BME280_pressure;Samples;Min_cycle;Max_cycle;Signal;HPM_P1;HPM_P2
2023/02/20 00:01:33;;;;;;;10.05;4.50;;;;;;;2.99;91.49;100329.20;123055;1105;104296;-75
2023/02/20 00:04:04;;;;;;;11.90;4.67;;;;;;;2.96;92.10;100334.20;122884;1105;104342;-75
2023/02/20 00:06:36;;;;;;;12.00;5.13;;;;;;;2.92;91.54;100332.23;122919;1105;104374;-76
2023/02/20 00:09:07;;;;;;;7.77;4.43;;;;;;;2.90;91.72;100333.80;122862;1105;104258;-76
2023/02/20 00:11:38;;;;;;;11.95;5.30;;;;;;;2.87;92.38;100338.00;122806;1105;104386;-76
2023/02/20 00:14:10;;;;;;;11.10;5.10;;;;;;;2.85;92.92;100339.61;122969;1105;105537;-75
2023/02/20 00:16:41;;;;;;;9.50;4.47;;;;;;;2.83;92.30;100337.71;122874;1105;104402;-75
2023/02/20 00:19:12;;;;;;;11.70;5.43;;;;;;;2.80;92.29;100340.98;122925;1105;104435;-75
2023/02/20 00:21:48;;;;;;;9.37;4.43;;;;;;;2.79;92.12;100340.89;122946;1105;104642;-76
2023/02/20 00:24:20;;;;;;;8.90;4.00;;;;;;;2.76;92.91;100343.28;122992;1105;104322;-75
2023/02/20 00:26:53;;;;;;;10.73;4.53;;;;;;;2.76;92.59;100345.87;122914;1105;104421;-75
2023/02/20 00:29:25;;;;;;;9.20;4.65;;;;;;;2.71;93.08;100348.17;122950;1104;104323;-75
2023/02/20 00:31:58;;;;;;;11.00;4.37;;;;;;;2.66;92.35;100342.69;122880;1105;104289;-74
2023/02/20 00:34:30;;;;;;;11.50;4.70;;;;;;;2.64;91.73;100344.30;122863;1106;104403;-75
2023/02/20 00:37:01;;;;;;;11.30;4.40;;;;;;;2.58;92.46;100343.02;122830;1105;104306;-74
2023/02/20 00:39:33;;;;;;;12.65;4.65;;;;;;;2.54;92.21;100347.11;122852;1105;104290;-75
2023/02/20 00:42:04;;;;;;;8.83;4.27;;;;;;;2.51;91.89;100352.97;122882;1105;104326;-75
2023/02/20 00:44:35;;;;;;;10.60;4.47;;;;;;;2.48;91.60;100350.18;122755;1105;104402;-75
2023/02/20 00:47:07;;;;;;;12.00;4.57;;;;;;;2.46;91.74;100349.20;122825;1105;104405;-75
2023/02/20 00:49:38;;;;;;;11.90;4.80;;;;;;;2.44;92.13;100355.06;122769;1105;104248;-75
2023/02/20 00:52:14;;;;;;;12.53;4.77;;;;;;;2.42;90.81;100361.84;122853;1105;104268;-74
2023/02/20 00:54:45;;;;;;;13.63;4.90;;;;;;;2.39;91.31;100366.81;122815;1105;104238;-75
2023/02/20 00:57:16;;;;;;;9.07;4.43;;;;;;;2.36;91.30;100372.68;122872;1105;104329;-74
2023/02/20 00:59:49;;;;;;;12.07;5.17;;;;;;;2.34;91.12;100371.69;122850;1105;104372;-75
2023/02/20 01:02:22;;;;;;;10.38;4.72;;;;;;;2.34;90.67;100376.88;122876;1105;104374;-75
2023/02/20 01:04:55;;;;;;;12.03;5.10;;;;;;;2.32;91.11;100375.84;122789;1104;104297;-75
2023/02/20 01:07:26;;;;;;;12.70;4.90;;;;;;;2.31;90.46;100374.08;122814;1105;104264;-75
2023/02/20 01:09:57;;;;;;;12.07;4.90;;;;;;;2.28;91.39;100384.23;122847;1105;104241;-74
2023/02/20 01:12:29;;;;;;;12.70;5.00;;;;;;;2.26;90.13;100378.03;122867;1105;104405;-75
2023/02/20 01:15:00;;;;;;;11.13;5.20;;;;;;;2.22;91.33;100376.05;122779;1105;105521;-74
2023/02/20 01:17:33;;;;;;;13.67;5.23;;;;;;;2.21;91.48;100374.24;122926;1105;104669;-74
2023/02/20 01:20:04;;;;;;;12.87;5.20;;;;;;;2.16;90.77;100382.59;122874;1105;104355;-75
2023/02/20 01:22:37;;;;;;;12.47;5.30;;;;;;;2.12;91.12;100378.02;122867;1105;104264;-75
2023/02/20 01:25:09;;;;;;;11.97;5.70;;;;;;;2.09;91.24;100388.17;123014;1105;104384;-74
2023/02/20 01:27:42;;;;;;;14.13;5.33;;;;;;;2.07;90.98;100388.84;122757;1105;104399;-74
2023/02/20 01:30:14;;;;;;;13.83;5.47;;;;;;;2.05;91.40;100393.03;122786;1105;104515;-74
2023/02/20 01:32:46;;;;;;;13.00;5.55;;;;;;;2.02;90.87;100391.12;122926;1105;104287;-75
2023/02/20 01:35:19;;;;;;;13.73;5.40;;;;;;;1.99;90.43;100396.09;122893;1105;104418;-75
2023/02/20 01:37:51;;;;;;;13.60;5.33;;;;;;;1.96;91.33;100393.29;122904;1105;104313;-74
2023/02/20 01:40:23;;;;;;;16.40;5.50;;;;;;;1.93;91.71;100398.25;122847;1105;104319;-75
2023/02/20 01:42:55;;;;;;;14.73;5.20;;;;;;;1.93;92.11;100403.44;122845;1105;104297;-74
2023/02/20 01:45:35;;;;;;;12.10;5.30;;;;;;;1.91;91.32;100397.27;122781;1105;105610;-75
2023/02/20 01:48:07;;;;;;;14.70;5.73;;;;;;;1.87;91.80;100398.75;122879;1105;104264;-74
2023/02/20 01:50:42;;;;;;;16.73;5.90;;;;;;;1.86;90.62;100393.47;122812;1105;104213;-74
2023/02/20 01:53:17;;;;;;;10.53;5.00;;;;;;;1.82;92.04;100399.22;122880;1105;104278;-75
2023/02/20 01:55:52;;;;;;;12.23;5.47;;;;;;;1.78;91.55;100395.53;122809;1105;104380;-75
2023/02/20 01:58:26;;;;;;;11.03;5.10;;;;;;;1.74;91.87;100399.58;122823;1105;110787;-75
2023/02/20 02:01:00;;;;;;;11.73;5.37;;;;;;;1.72;91.56;100403.75;122846;1105;104294;-74
2023/02/20 02:03:36;;;;;;;14.83;6.00;;;;;;;1.71;91.14;100403.65;122867;1105;104271;-74
2023/02/20 02:06:10;;;;;;;15.00;5.80;;;;;;;1.68;91.80;100406.91;122722;1105;104274;-75
2023/02/20 02:08:45;;;;;;;12.97;5.70;;;;;;;1.66;91.96;100400.74;122798;1105;104364;-75
2023/02/20 02:11:18;;;;;;;17.47;6.53;;;;;;;1.66;91.03;100410.20;122810;1105;104666;-75
2023/02/20 02:13:50;;;;;;;20.72;8.73;;;;;;;1.64;91.40;100420.44;122976;1105;104424;-75
2023/02/20 02:16:35;;;;;;;18.50;7.50;;;;;;;1.62;92.40;100414.24;122918;1105;104338;-75
2023/02/20 02:19:26;;;;;;;20.80;7.30;;;;;;;1.61;92.20;100422.81;122931;1106;107879;-75
2023/02/20 02:22:29;;;;;;;17.70;6.43;;;;;;;1.58;91.35;100423.48;123056;1105;104291;-75
2023/02/20 02:25:21;;;;;;;16.30;6.40;;;;;;;1.57;91.88;100425.96;122960;1105;104364;-75
2023/02/20 02:28:33;;;;;;;14.00;5.43;;;;;;;1.54;92.45;100441.27;122978;1105;104258;-75
2023/02/20 02:31:35;;;;;;;13.37;5.63;;;;;;;1.55;92.10;100432.73;122908;1105;104377;-74
2023/02/20 02:34:32;;;;;;;15.17;6.17;;;;;;;1.55;91.78;100438.78;122881;1105;104219;-75
2023/02/20 02:37:17;;;;;;;13.90;5.90;;;;;;;1.53;91.56;100444.66;122871;1105;104271;-75
2023/02/20 02:39:58;;;;;;;17.03;6.13;;;;;;;1.51;92.14;100454.90;122840;1105;110866;-75
2023/02/20 02:42:41;;;;;;;15.95;6.20;;;;;;;1.51;91.96;100459.15;122907;1105;104316;-75
2023/02/20 02:45:17;;;;;;;14.77;6.17;;;;;;;1.51;92.03;100459.15;122825;1105;104702;-75
2023/02/20 02:47:55;;;;;;;13.17;6.00;;;;;;;1.50;91.34;100459.96;122846;1105;104415;-75
2023/02/20 02:50:35;;;;;;;16.40;6.00;;;;;;;1.48;92.02;100461.52;122882;1105;104370;-75
2023/02/20 02:53:08;;;;;;;13.57;5.90;;;;;;;1.47;91.37;100462.33;122823;1105;104345;-75
2023/02/20 02:55:39;;;;;;;13.83;5.83;;;;;;;1.45;91.74;100469.98;122877;1105;104294;-74
2023/02/20 02:58:12;;;;;;;14.97;5.93;;;;;;;1.43;91.41;100468.95;122842;1106;104217;-74
2023/02/20 03:00:48;;;;;;;17.05;6.22;;;;;;;1.43;92.31;100474.12;122828;1105;104290;-74
2023/02/20 03:03:24;;;;;;;15.33;6.20;;;;;;;1.43;91.93;100468.95;122856;1105;104367;-75
2023/02/20 03:06:02;;;;;;;16.73;6.47;;;;;;;1.40;92.10;100474.82;122893;1105;104261;-75
2023/02/20 03:08:38;;;;;;;17.30;6.10;;;;;;;1.37;91.59;100484.94;122875;1105;104367;-74
2023/02/20 03:11:13;;;;;;;14.27;5.83;;;;;;;1.34;92.03;100470.87;122899;1105;104552;-74
2023/02/20 03:16:46;;;;;;;14.87;6.20;;;;;;;1.33;92.79;100472.56;122824;1105;104342;-74
2023/02/20 03:19:22;;;;;;;17.43;7.20;;;;;;;1.33;92.30;100487.19;122802;1105;104347;-74
2023/02/20 03:21:56;;;;;;;16.57;6.77;;;;;;;1.30;91.95;100487.86;122837;1105;104267;-75
2023/02/20 03:24:29;;;;;;;17.77;6.20;;;;;;;1.30;93.59;100494.73;122849;1106;104345;-75
2023/02/20 03:27:03;;;;;;;17.02;6.42;;;;;;;1.30;93.43;100499.89;122943;1105;104299;-74
2023/02/20 03:29:36;;;;;;;;;;;;;;;1.28;93.06;100504.95;122986;1105;104313;-75
2023/02/20 03:43:35;;;;;;;17.90;5.90;;;;;;;1.19;91.94;100530.13;122949;1105;104409;-74
2023/02/20 03:46:12;;;;;;;14.50;6.07;;;;;;;1.18;91.76;100536.08;122876;1105;104376;-75
2023/02/20 03:48:46;;;;;;;17.83;6.10;;;;;;;1.16;92.19;100545.41;122902;1105;104374;-76
2023/02/20 03:51:18;;;;;;;14.55;6.35;;;;;;;1.15;92.70;100543.61;123032;1105;117908;-75
2023/02/20 03:54:16;;;;;;;15.07;6.50;;;;;;;1.13;91.91;100545.19;123116;1105;105742;-75
2023/02/20 03:56:53;;;;;;;14.80;5.53;;;;;;;1.13;92.47;100545.19;122979;1105;104242;-74
2023/02/20 03:59:29;;;;;;;17.93;6.30;;;;;;;1.14;91.99;100544.38;123096;1105;104281;-75
2023/02/20 04:02:05;;;;;;;14.37;5.50;;;;;;;1.14;92.43;100541.80;123046;1105;104307;-75
2023/02/20 04:04:40;;;;;;;16.80;5.90;;;;;;;1.15;91.85;100549.66;123206;1105;104325;-76
2023/02/20 04:07:21;;;;;;;14.67;5.87;;;;;;;1.14;91.95;100552.13;123023;1105;104424;-75
2023/02/20 04:09:55;;;;;;;15.80;5.33;;;;;;;1.13;92.30;100555.53;123148;1105;104367;-75
2023/02/20 04:12:27;;;;;;;;;;;;;;;1.12;92.09;100558.88;123360;1105;104375;-74
2023/02/20 04:14:59;;;;;;;17.10;5.83;;;;;;;1.10;92.00;100553.60;123111;1105;104291;-76
2023/02/20 04:17:37;;;;;;;17.90;6.25;;;;;;;1.11;91.75;100551.91;123366;1105;104357;-75
2023/02/20 04:20:11;;;;;;;16.77;6.23;;;;;;;1.11;91.61;100551.91;123170;1105;104261;-74
2023/02/20 04:22:50;;;;;;;17.33;5.73;;;;;;;1.11;92.28;100557.08;123204;1105;104240;-75
2023/02/20 04:25:33;;;;;;;15.67;5.93;;;;;;;1.09;91.87;100559.55;123389;1105;104310;-75
2023/02/20 04:28:06;;;;;;;13.90;5.63;;;;;;;1.09;92.51;100562.13;123339;1105;104261;-75
2023/02/20 04:30:46;;;;;;;14.77;6.50;;;;;;;1.07;91.77;100562.02;123275;1106;104456;-75
2023/02/20 04:33:18;;;;;;;16.03;6.60;;;;;;;1.08;91.51;100562.94;123401;1105;104437;-75
2023/02/20 04:35:50;;;;;;;18.00;6.60;;;;;;;1.06;91.89;100565.41;123188;1105;104216;-75
2023/02/20 04:38:22;;;;;;;16.77;6.40;;;;;;;1.06;92.74;100561.90;123252;1105;104322;-75
2023/02/20 04:40:54;;;;;;;17.30;6.95;;;;;;;1.03;92.51;100565.17;123036;1105;104238;-74
2023/02/20 04:43:26;;;;;;;22.10;7.27;;;;;;;1.03;91.34;100569.45;123210;1105;104434;-75
2023/02/20 04:45:57;;;;;;;16.37;6.50;;;;;;;1.01;91.23;100571.92;123067;1105;104383;-75
2023/02/20 04:48:29;;;;;;;17.47;6.17;;;;;;;0.98;92.05;100575.94;122973;1105;104284;-75
2023/02/20 04:51:00;;;;;;;16.33;6.40;;;;;;;0.97;91.77;100582.81;122977;1105;104377;-74
2023/02/20 04:53:32;;;;;;;19.03;6.47;;;;;;;0.95;91.73;100592.14;123041;1105;104756;-74
2023/02/20 04:56:03;;;;;;;16.67;6.50;;;;;;;0.95;91.08;100599.89;123090;1105;104392;-75
2023/02/20 04:58:36;;;;;;;15.60;6.27;;;;;;;0.94;91.21;100600.66;123126;1105;104511;-75
2023/02/20 05:01:13;;;;;;;17.80;6.35;;;;;;;0.93;90.79;100606.60;123058;1105;104351;-75
2023/02/20 05:03:44;;;;;;;17.30;6.40;;;;;;;0.93;91.84;100605.72;123137;1105;104243;-75
2023/02/20 05:06:15;;;;;;;19.13;6.00;;;;;;;0.88;92.58;100601.09;123252;1105;104265;-75
2023/02/20 05:08:47;;;;;;;17.10;6.43;;;;;;;0.91;91.36;100600.43;123183;1105;104463;-74
2023/02/20 05:11:18;;;;;;;16.57;6.47;;;;;;;0.94;91.63;100599.77;123128;1105;104322;-74
2023/02/20 05:13:50;;;;;;;17.97;6.63;;;;;;;0.94;90.83;100598.08;123218;1105;104287;-74
2023/02/20 05:16:21;;;;;;;17.83;6.33;;;;;;;0.95;91.99;100601.55;123086;1105;104300;-74
2023/02/20 05:18:52;;;;;;;17.77;6.70;;;;;;;0.96;91.44;100606.84;123151;1105;104334;-74
2023/02/20 05:24:12;;;;;;;18.30;6.67;;;;;;;0.98;91.67;100613.04;123244;1105;104316;-75
2023/02/20 05:26:43;;;;;;;18.00;6.30;;;;;;;0.99;91.69;100609.65;123252;1105;104271;-74
2023/02/20 05:29:15;;;;;;;15.05;6.55;;;;;;;1.01;91.83;100613.27;123401;1105;104322;-74
2023/02/20 05:31:46;;;;;;;18.37;6.50;;;;;;;1.04;91.92;100612.58;123339;1105;104253;-75
2023/02/20 05:34:20;;;;;;;18.30;7.47;;;;;;;1.06;91.39;100616.17;123316;1105;104348;-74
2023/02/20 05:36:51;;;;;;;18.60;6.70;;;;;;;1.07;91.01;100613.70;123180;1105;104329;-75
2023/02/20 05:39:22;;;;;;;19.67;6.57;;;;;;;1.10;91.92;100618.22;123313;1105;104275;-74
2023/02/20 05:41:54;;;;;;;18.50;6.40;;;;;;;1.13;92.16;100627.89;123279;1105;104240;-74
2023/02/20 05:44:25;;;;;;;19.23;6.67;;;;;;;1.17;92.66;100629.91;123256;1105;104187;-75
2023/02/20 05:46:56;;;;;;;17.87;6.27;;;;;;;1.20;92.02;100627.55;123135;1105;104565;-73
2023/02/20 05:49:28;;;;;;;19.07;7.23;;;;;;;1.28;91.92;100634.22;123005;1105;104252;-74
2023/02/20 05:51:59;;;;;;;17.67;6.70;;;;;;;1.34;92.38;100650.19;123249;1105;104681;-74
2023/02/20 05:54:30;;;;;;;19.33;7.30;;;;;;;1.41;91.45;100643.78;123099;1105;104376;-73
2023/02/20 05:57:02;;;;;;;14.97;6.17;;;;;;;1.48;92.24;100655.47;123127;1105;104331;-74
2023/02/20 05:59:33;;;;;;;19.47;6.90;;;;;;;1.54;92.30;100662.02;123176;1105;104288;-74
2023/02/20 06:02:04;;;;;;;16.27;6.37;;;;;;;1.63;91.73;100660.89;123552;1105;104289;-74
2023/02/20 06:04:36;;;;;;;19.37;6.70;;;;;;;1.67;92.59;100656.06;123171;1105;104342;-73
2023/02/20 06:07:09;;;;;;;18.13;6.53;;;;;;;1.74;93.20;100657.40;123515;1105;104258;-75
2023/02/20 06:09:44;;;;;;;15.60;6.70;;;;;;;1.80;92.39;100669.09;124019;1105;104402;-74
2023/02/20 06:12:16;;;;;;;18.83;6.90;;;;;;;1.87;92.31;100664.36;123645;1105;104258;-75
2023/02/20 06:14:47;;;;;;;22.97;6.87;;;;;;;1.94;91.47;100664.03;124149;1105;104278;-75
2023/02/20 06:17:19;;;;;;;19.73;7.20;;;;;;;2.01;93.25;100657.61;123629;1105;104261;-75
2023/02/20 06:19:51;;;;;;;20.37;7.53;;;;;;;2.08;92.53;100665.92;123777;1105;104277;-75
2023/02/20 06:22:22;;;;;;;26.97;9.87;;;;;;;2.19;93.44;100670.98;123727;1105;104350;-76
2023/02/20 06:24:54;;;;;;;22.30;8.55;;;;;;;2.27;94.14;100665.55;123795;1105;104353;-75
2023/02/20 06:27:25;;;;;;;22.30;8.13;;;;;;;2.35;93.56;100663.51;124145;1105;104274;-76
2023/02/20 06:29:56;;;;;;;23.53;8.70;;;;;;;2.44;93.55;100665.86;123937;1105;104261;-76
2023/02/20 06:32:28;;;;;;;20.27;8.20;;;;;;;2.49;92.03;100668.00;124179;1105;104226;-76
2023/02/20 06:34:59;;;;;;;22.90;8.23;;;;;;;2.57;92.98;100660.77;123976;1106;104254;-77
2023/02/20 06:37:31;;;;;;;20.73;7.80;;;;;;;2.69;92.95;100676.25;124221;1105;102645;-76
2023/02/20 06:40:03;;;;;;;16.43;6.57;;;;;;;2.71;91.21;100674.66;124150;1105;104261;-75
2023/02/20 06:42:36;;;;;;;18.40;7.83;;;;;;;2.77;91.32;100667.31;125757;1105;101958;-77
2023/02/20 06:45:12;;;;;;;21.50;7.77;;;;;;;2.82;90.42;100678.92;125101;1105;102303;-76
2023/02/20 06:47:44;;;;;;;18.53;7.07;;;;;;;2.84;88.79;100679.91;123984;1105;104242;-74
2023/02/20 06:50:15;;;;;;;19.20;7.20;;;;;;;2.91;88.44;100670.86;124007;1105;104229;-74
2023/02/20 06:52:48;;;;;;;19.30;8.10;;;;;;;2.96;87.90;100671.17;124030;1105;105590;-76
2023/02/20 06:55:20;;;;;;;20.23;8.03;;;;;;;3.05;87.47;100670.14;124010;1105;102975;-75
2023/02/20 06:57:51;;;;;;;26.13;11.40;;;;;;;3.15;87.72;100670.77;124062;1105;104290;-74
2023/02/20 07:00:25;;;;;;;22.83;8.57;;;;;;;3.22;86.98;100673.84;124432;1106;104262;-75
2023/02/20 07:02:56;;;;;;;21.00;7.58;;;;;;;3.28;87.23;100669.89;124270;1105;104287;-75
2023/02/20 07:05:28;;;;;;;20.70;7.17;;;;;;;3.34;86.04;100663.41;124498;1105;104265;-77
2023/02/20 07:08:05;;;;;;;20.83;8.50;;;;;;;3.41;86.33;100657.86;124520;1105;104341;-77
2023/02/20 07:10:37;;;;;;;22.83;7.73;;;;;;;3.46;85.69;100670.21;124331;1105;104232;-75
2023/02/20 07:13:08;;;;;;;18.73;7.60;;;;;;;3.52;85.67;100676.73;124096;1105;104236;-75
2023/02/20 07:15:39;;;;;;;19.83;7.77;;;;;;;3.54;84.73;100667.34;124078;1105;104272;-77
2023/02/20 07:18:11;;;;;;;20.37;8.03;;;;;;;3.57;85.69;100664.06;124207;1105;102240;-76
2023/02/20 07:20:42;;;;;;;24.63;7.77;;;;;;;3.65;84.32;100674.95;124409;1105;103449;-78
2023/02/20 07:23:15;;;;;;;20.70;7.03;;;;;;;3.64;83.46;100668.84;124541;1105;104367;-76
2023/02/20 07:25:48;;;;;;;23.13;8.00;;;;;;;3.69;84.60;100659.66;124299;1105;103656;-75
2023/02/20 07:28:21;;;;;;;19.90;7.53;;;;;;;3.72;82.32;100662.45;124251;1105;102650;-76
2023/02/20 07:30:54;;;;;;;20.87;6.80;;;;;;;3.72;82.07;100667.64;124266;1106;103317;-77
2023/02/20 07:33:26;;;;;;;18.97;6.77;;;;;;;3.75;80.82;100682.53;124239;1105;102196;-76
2023/02/20 07:36:00;;;;;;;17.73;6.37;;;;;;;3.71;81.06;100672.73;124425;1105;103273;-76
2023/02/20 07:38:30;;;;;;;;;;;;;;;3.69;78.73;100685.61;124166;1105;104351;-76
2023/02/20 07:41:07;;;;;;;21.67;6.63;;;;;;;3.79;80.55;100679.35;124781;1105;102857;-76
2023/02/20 07:43:39;;;;;;;19.85;6.78;;;;;;;3.93;80.46;100670.75;124736;1106;104175;-76
2023/02/20 07:46:12;;;;;;;18.63;6.50;;;;;;;4.13;79.90;100681.55;124326;1105;104235;-76
2023/02/20 07:48:45;;;;;;;15.07;6.20;;;;;;;4.28;80.44;100661.71;123949;1106;104324;-77
2023/02/20 07:51:16;;;;;;;19.37;6.33;;;;;;;4.35;80.12;100659.50;124260;1105;104213;-79
2023/02/20 07:53:52;;;;;;;17.70;5.60;;;;;;;4.36;78.10;100658.72;124364;1105;103041;-79
2023/02/20 07:56:24;;;;;;;15.90;5.67;;;;;;;4.38;79.21;100652.83;124318;1105;104258;-81
2023/02/20 07:58:57;;;;;;;15.60;5.60;;;;;;;4.30;77.79;100638.43;125847;1105;102598;-78
2023/02/20 08:01:29;;;;;;;18.57;5.90;;;;;;;4.29;78.57;100641.85;125833;1105;102955;-76
2023/02/20 08:04:00;;;;;;;16.97;5.30;;;;;;;4.29;76.37;100645.34;125971;1104;102204;-77
2023/02/20 08:06:33;;;;;;;11.87;4.87;;;;;;;4.40;76.80;100666.80;125914;1104;102030;-77
2023/02/20 08:09:05;;;;;;;13.27;4.93;;;;;;;4.50;77.14;100674.38;125781;1105;102652;-75
2023/02/20 08:11:37;;;;;;;13.03;4.83;;;;;;;4.48;74.54;100675.97;124433;1105;104373;-76
2023/02/20 08:14:09;;;;;;;15.27;4.57;;;;;;;4.42;75.52;100669.50;124294;1105;104213;-76
2023/02/20 08:16:41;;;;;;;12.67;4.67;;;;;;;4.42;73.51;100675.58;124151;1105;103811;-74
2023/02/20 08:19:12;;;;;;;10.43;4.60;;;;;;;4.38;72.65;100673.61;123984;1105;102781;-74
2023/02/20 08:21:45;;;;;;;12.27;4.53;;;;;;;4.36;71.93;100684.70;124269;1105;104748;-76
2023/02/20 08:24:16;;;;;;;11.23;4.00;;;;;;;4.40;71.21;100697.98;123989;1105;104195;-75
2023/02/20 08:26:50;;;;;;;12.70;3.97;;;;;;;4.42;70.96;100690.28;124100;1105;111839;-77
2023/02/20 08:29:21;;;;;;;15.47;3.80;;;;;;;4.49;69.66;100692.48;124307;1105;102790;-76
2023/02/20 08:31:53;;;;;;;14.00;4.20;;;;;;;4.55;70.82;100674.67;124320;1105;102452;-75
2023/02/20 08:34:25;;;;;;;12.20;4.00;;;;;;;4.62;70.91;100669.03;124308;1105;104347;-75
2023/02/20 08:36:58;;;;;;;15.27;4.30;;;;;;;4.66;71.06;100671.03;124484;1106;102444;-76
2023/02/20 08:39:31;;;;;;;9.43;3.70;;;;;;;4.73;70.92;100677.50;124319;1106;102893;-77
2023/02/20 08:42:03;;;;;;;11.73;3.77;;;;;;;4.79;67.59;100663.99;124422;1105;104181;-77
2023/02/20 08:44:34;;;;;;;13.07;3.90;;;;;;;4.83;66.04;100668.55;124475;1105;102286;-76
2023/02/20 08:47:05;;;;;;;10.53;3.77;;;;;;;4.80;65.92;100696.97;124423;1105;107935;-77
2023/02/20 08:49:37;;;;;;;12.23;3.90;;;;;;;4.80;66.30;100691.77;124936;1105;104076;-77
2023/02/20 08:52:08;;;;;;;14.27;4.50;;;;;;;4.89;68.86;100681.05;124543;1105;103663;-77
2023/02/20 08:54:40;;;;;;;9.93;3.60;;;;;;;4.98;66.78;100679.90;124534;1105;102925;-76
2023/02/20 08:57:11;;;;;;;9.37;3.73;;;;;;;5.08;66.56;100683.98;124364;1106;103112;-76
2023/02/20 08:59:43;;;;;;;12.30;4.10;;;;;;;5.13;65.80;100687.75;124424;1105;103847;-78
2023/02/20 09:02:23;;;;;;;10.20;3.90;;;;;;;5.19;64.55;100682.91;124544;1105;104265;-75
2023/02/20 09:04:55;;;;;;;10.97;3.37;;;;;;;5.27;63.10;100692.89;124815;1105;102764;-75
2023/02/20 09:07:28;;;;;;;7.77;3.57;;;;;;;5.26;64.10;100683.28;124723;1105;104386;-76
2023/02/20 09:10:03;;;;;;;11.60;3.20;;;;;;;5.22;60.66;100695.22;124860;1105;102946;-77
2023/02/20 09:12:38;;;;;;;11.13;3.60;;;;;;;5.18;65.17;100688.03;124690;1105;104237;-75
2023/02/20 09:15:12;;;;;;;9.25;3.50;;;;;;;5.16;62.80;100697.45;124400;1106;102623;-78
2023/02/20 09:17:49;;;;;;;9.50;3.60;;;;;;;5.17;62.87;100681.02;124574;1105;111643;-75
2023/02/20 09:20:30;;;;;;;11.10;3.35;;;;;;;5.12;60.34;100706.75;124608;1105;104214;-77
2023/02/20 09:23:04;;;;;;;9.63;3.23;;;;;;;5.12;60.75;100688.54;125791;1105;102519;-76
2023/02/20 09:25:35;;;;;;;11.33;3.77;;;;;;;5.09;60.99;100688.35;125831;1104;101952;-78
2023/02/20 09:28:08;;;;;;;8.10;3.50;;;;;;;4.99;59.40;100701.63;125841;1105;101699;-77
2023/02/20 09:30:40;;;;;;;11.27;3.13;;;;;;;4.95;60.72;100681.42;124514;1104;104392;-77
2023/02/20 09:33:11;;;;;;;8.83;3.40;;;;;;;4.97;61.92;100678.13;124393;1105;104188;-77
2023/02/20 09:35:43;;;;;;;9.00;3.07;;;;;;;4.98;61.54;100669.49;124416;1105;104201;-76
2023/02/20 09:38:15;;;;;;;8.57;3.50;;;;;;;5.04;60.96;100684.59;124219;1105;108330;-76
2023/02/20 09:41:03;;;;;;;11.53;3.20;;;;;;;5.16;61.52;100684.44;124087;1104;104245;-77
2023/02/20 09:43:48;;;;;;;13.53;3.73;;;;;;;5.27;62.65;100678.17;124172;1105;103044;-76
2023/02/20 09:46:22;;;;;;;12.07;4.00;;;;;;;5.33;60.89;100673.34;124313;1105;104281;-77
2023/02/20 09:49:11;;;;;;;9.63;3.50;;;;;;;5.37;60.65;100667.48;125770;1104;102282;-77
2023/02/20 09:51:46;;;;;;;12.50;3.97;;;;;;;5.40;59.74;100669.38;124317;1105;104316;-77
2023/02/20 09:54:25;;;;;;;10.70;3.20;;;;;;;5.33;58.31;100673.34;126004;1104;102724;-77
2023/02/20 09:57:03;;;;;;;11.07;4.30;;;;;;;5.35;58.51;100665.62;124840;1105;104302;-77
2023/02/20 09:59:39;;;;;;;9.27;3.40;;;;;;;5.37;58.02;100693.50;124333;1105;104229;-77
2023/02/20 10:02:18;;;;;;;10.05;3.40;;;;;;;5.33;57.18;100673.34;124171;1105;104296;-77
2023/02/20 10:04:51;;;;;;;10.30;3.30;;;;;;;5.32;57.68;100676.73;124176;1105;104781;-77
2023/02/20 10:07:28;;;;;;;8.78;3.20;;;;;;;5.29;57.60;100663.54;124412;1105;104236;-77
2023/02/20 10:10:03;;;;;;;8.00;2.97;;;;;;;5.24;57.35;100674.50;124453;1104;104635;-77
2023/02/20 10:12:45;;;;;;;11.03;2.87;;;;;;;5.25;55.67;100660.66;124166;1105;104271;-77
2023/02/20 10:15:22;;;;;;;8.63;3.10;;;;;;;5.25;56.49;100671.98;124111;1105;102937;-77
2023/02/20 10:18:03;;;;;;;9.73;2.90;;;;;;;5.30;56.24;100673.15;123933;1105;102475;-76
2023/02/20 10:20:46;;;;;;;10.20;3.20;;;;;;;5.39;57.65;100665.89;125795;1105;102517;-76
2023/02/20 10:23:29;;;;;;;7.73;3.03;;;;;;;5.59;57.24;100673.95;125945;1104;102399;-76
2023/02/20 10:26:04;;;;;;;6.77;2.80;;;;;;;5.74;58.19;100669.64;124191;1105;104271;-77
2023/02/20 10:28:37;;;;;;;7.10;3.03;;;;;;;5.79;57.57;100675.11;124177;1105;104076;-77
2023/02/20 10:31:28;;;;;;;6.93;2.87;;;;;;;5.85;57.19;100654.63;124319;1105;104246;-77
2023/02/20 10:34:06;;;;;;;13.40;3.03;;;;;;;5.94;57.13;100680.31;124589;1105;104194;-77
2023/02/20 10:36:41;;;;;;;12.73;3.13;;;;;;;6.06;57.52;100643.66;124464;1105;104279;-75
2023/02/20 10:39:16;;;;;;;10.40;2.90;;;;;;;6.09;57.38;100659.46;124280;1105;104259;-76
2023/02/20 10:41:56;;;;;;;12.00;3.00;;;;;;;6.05;57.35;100652.31;124522;1105;104271;-77
2023/02/20 10:44:32;;;;;;;9.33;3.00;;;;;;;6.07;57.82;100642.86;124700;1104;104264;-75
2023/02/20 10:47:12;;;;;;;5.67;2.60;;;;;;;6.13;57.84;100648.41;124311;1104;104294;-75
2023/02/20 10:49:52;;;;;;;10.50;3.00;;;;;;;6.14;57.74;100639.80;124749;1105;112203;-77
2023/02/20 10:52:27;;;;;;;9.30;3.20;;;;;;;6.18;57.86;100644.34;124771;1104;103214;-77
2023/02/20 10:55:08;;;;;;;6.20;3.10;;;;;;;6.23;57.46;100647.20;124635;1105;104305;-76
2023/02/20 10:57:47;;;;;;;7.37;2.80;;;;;;;6.21;55.79;100635.81;124616;1104;102651;-76
2023/02/20 11:00:28;;;;;;;11.50;3.27;;;;;;;6.22;56.68;100637.63;124837;1105;103578;-77
2023/02/20 11:06:17;;;;;;;7.37;2.97;;;;;;;6.31;56.19;100609.46;124744;1105;104740;-77
2023/02/20 11:08:49;;;;;;;11.03;3.37;;;;;;;6.34;56.73;100606.98;124808;1105;102814;-75
2023/02/20 11:11:34;;;;;;;17.10;7.20;;;;;;;6.44;56.70;100608.41;124571;1105;102869;-75
2023/02/20 11:14:14;;;;;;;13.00;4.33;;;;;;;6.55;57.27;100593.34;124567;1105;103841;-74
2023/02/20 11:16:53;;;;;;;9.17;2.80;;;;;;;6.61;57.38;100589.34;124318;1105;102966;-76
2023/02/20 11:19:30;;;;;;;8.57;3.23;;;;;;;6.72;55.75;100582.08;124557;1105;102424;-75
2023/02/20 11:22:03;;;;;;;13.77;4.27;;;;;;;6.75;55.11;100582.24;124456;1105;104333;-74
2023/02/20 11:24:37;;;;;;;6.85;2.90;;;;;;;6.73;54.60;100575.14;124327;1105;102581;-75
2023/02/20 11:27:13;;;;;;;6.07;2.37;;;;;;;6.70;55.27;100570.69;124467;1106;104185;-73
2023/02/20 11:29:52;;;;;;;8.83;2.70;;;;;;;6.69;55.43;100561.06;124441;1105;104314;-73
2023/02/20 11:32:33;;;;;;;11.43;2.87;;;;;;;6.64;55.49;100559.94;124643;1105;104213;-75
2023/02/20 11:35:22;;;;;;;8.97;2.90;;;;;;;6.60;56.47;100550.15;124659;1105;103312;-75
2023/02/20 11:38:32;;;;;;;8.97;2.73;;;;;;;6.63;55.59;100540.77;124472;1105;103562;-74
2023/02/20 11:41:23;;;;;;;8.13;2.60;;;;;;;6.51;54.88;100539.23;124355;1105;104176;-74
2023/02/20 11:44:19;;;;;;;5.33;2.17;;;;;;;6.37;54.53;100521.14;124472;1105;102126;-74
2023/02/20 11:47:11;;;;;;;6.90;2.50;;;;;;;6.36;55.06;100516.77;124425;1105;103060;-75
2023/02/20 11:49:46;;;;;;;6.67;2.50;;;;;;;6.42;56.08;100495.32;124334;1105;104224;-74
2023/02/20 11:52:28;;;;;;;5.73;2.50;;;;;;;6.50;56.46;100493.11;124565;1105;103424;-74
2023/02/20 11:55:20;;;;;;;7.27;2.50;;;;;;;6.56;55.81;100490.83;125621;1105;101963;-73
2023/02/20 11:57:51;;;;;;;9.87;2.80;;;;;;;6.60;56.15;100498.00;125745;1104;102253;-76
2023/02/20 12:00:25;;;;;;;12.37;3.50;;;;;;;6.62;54.73;100492.06;125555;1105;101812;-75
2023/02/20 12:03:13;;;;;;;8.57;2.67;;;;;;;6.64;54.38;100489.53;125794;1104;102549;-75
2023/02/20 12:05:47;;;;;;;8.07;2.20;;;;;;;6.66;54.14;100509.62;125793;1104;102662;-75
2023/02/20 12:08:43;;;;;;;7.95;2.37;;;;;;;6.70;54.77;100508.10;125765;1105;102343;-76